Hoboken — WDH5566 — position and weather

sailwx.info

Track history (hours):
 
Tides and Currents Weather Stations Pressure Air Temp Water Temp Dewpoint Dewpoint Depression Visibility Wind Speed Wind Dir Waves Ship Positions

Hoboken

Owner: Port Imperial Ferry Corp., Weehawken, NJ. More information available from US FCC via Universal Licensing System and Coast Guard Vessel Documentation Center.

Last reported at 2018-Apr-18 13:59 UTC. Time now 2018-Apr-27 05:06 UTC.
Position N 40°46' W 074°01'.
Warning: this ship's position is 8 days out of date.

Length 26 m; draft 2 m.

Type: Passenger vessel. MMSI: 366868360.

Date/timePositionNaut miles runAvg speedWind from/ knotsBaromVisibWave heightAir tempDewpointWater temp
2018-Apr-18 13:59N 40°46' W 074°01'0 0.1
2018-Apr-18 13:30N 40°46' W 074°01'0 0.0
2018-Apr-18 13:00N 40°46' W 074°01'1 2.1
2018-Apr-18 12:30N 40°45' W 074°01'5 9.7
2018-Apr-18 12:00N 40°50' W 073°58'  
2018-Apr-15 21:11N 40°46' W 074°01'0 0.3
2018-Apr-15 21:00N 40°46' W 074°01'0 0.0
2018-Apr-15 20:29N 40°46' W 074°01'0 0.0
2018-Apr-15 20:00N 40°46' W 074°01'0 0.0
2018-Apr-15 19:30N 40°46' W 074°01'0 0.0
2018-Apr-15 19:00N 40°46' W 074°01'0 0.0
2018-Apr-15 18:30N 40°46' W 074°01'0 0.0
2018-Apr-15 18:00N 40°46' W 074°01'0 0.0
2018-Apr-15 17:29N 40°46' W 074°01'0 0.0
2018-Apr-15 17:00N 40°46' W 074°01'0 0.0
2018-Apr-15 16:30N 40°46' W 074°01'0 0.0
2018-Apr-15 15:59N 40°46' W 074°01'0 0.0
2018-Apr-15 15:30N 40°46' W 074°01'0 0.0
2018-Apr-15 14:59N 40°46' W 074°01'0 0.0
2018-Apr-13 13:39N 40°46' W 074°01'0 2.2
2018-Apr-13 13:30N 40°47' W 074°01'2 3.4
2018-Apr-13 13:01N 40°45' W 074°01'2 4.3
2018-Apr-13 12:30N 40°43' W 074°01'0 0.0
2018-Apr-13 12:00N 40°43' W 074°01'0 0.4
2018-Apr-13 11:31N 40°43' W 074°01'0 0.2
2018-Apr-13 11:00N 40°43' W 074°01'1 2.6
2018-Apr-13 10:31N 40°44' W 074°02'0 0.0
2018-Apr-13 01:13N 40°44' W 074°02'1 5.6
2018-Apr-13 01:01N 40°43' W 074°01'0 0.0
2018-Apr-13 00:30N 40°43' W 074°01'0 0.0
2018-Apr-13 00:00N 40°43' W 074°01'0 0.0
2018-Apr-12 23:30N 40°43' W 074°01'0 0.0
2018-Apr-12 23:00N 40°43' W 074°01'0 0.1
2018-Apr-12 22:30N 40°43' W 074°01'0 0.1
2018-Apr-12 22:00N 40°43' W 074°01'0 0.0
2018-Apr-12 21:30N 40°43' W 074°01'0 0.0
2018-Apr-12 21:00N 40°43' W 074°01'0 0.0
2018-Apr-12 20:30N 40°43' W 074°01'0 0.0
2018-Apr-12 20:01N 40°43' W 074°01'0 0.0
2018-Apr-12 19:30N 40°43' W 074°01'0 0.3
2018-Apr-12 19:00N 40°43' W 074°01'0 0.3
2018-Apr-12 18:30N 40°43' W 074°01'0 0.0
2018-Apr-12 18:00N 40°43' W 074°01'0 0.1
2018-Apr-12 17:30N 40°43' W 074°01'0 0.1
2018-Apr-12 17:00N 40°43' W 074°01'0 0.2
2018-Apr-12 16:30N 40°43' W 074°01'0 0.2
2018-Apr-12 16:00N 40°43' W 074°01'0 0.3
2018-Apr-12 15:30N 40°43' W 074°01'0 0.4
2018-Apr-12 15:00N 40°43' W 074°01'0 0.2
2018-Apr-12 14:30N 40°43' W 074°01'0 0.1
2018-Apr-12 14:00N 40°43' W 074°01'0 0.4
2018-Apr-12 13:30N 40°43' W 074°01'0 0.1
2018-Apr-12 13:00N 40°43' W 074°01'0 0.5
2018-Apr-12 12:30N 40°43' W 074°01'0 0.2
2018-Apr-12 12:00N 40°43' W 074°01'0 0.6
2018-Apr-12 11:30N 40°43' W 074°02'0 0.4
2018-Apr-12 11:00N 40°43' W 074°01'1 2.7
2018-Apr-12 10:30N 40°44' W 074°02'0 0.0
2018-Apr-12 01:12N 40°44' W 074°02'1 6.7
2018-Apr-12 01:00N 40°43' W 074°01'0 0.0
2018-Apr-12 00:31N 40°43' W 074°01'0 0.0
2018-Apr-12 00:00N 40°43' W 074°01'0 0.0
2018-Apr-11 23:30N 40°43' W 074°01'0 0.1
2018-Apr-11 23:00N 40°43' W 074°01'0 0.0
2018-Apr-11 22:30N 40°43' W 074°01'0 0.0
2018-Apr-11 22:00N 40°43' W 074°01'0 0.0
2018-Apr-11 21:30N 40°43' W 074°01'0 0.0
2018-Apr-11 21:00N 40°43' W 074°01'0 0.1
2018-Apr-11 20:30N 40°43' W 074°01'0 0.1
2018-Apr-11 20:01N 40°43' W 074°01'0 0.0
2018-Apr-11 19:30N 40°43' W 074°01'0 0.2
2018-Apr-11 19:00N 40°43' W 074°01'0 0.2
2018-Apr-11 18:31N 40°43' W 074°01'0 0.1
2018-Apr-11 18:01N 40°43' W 074°01'0 0.1
2018-Apr-11 17:31N 40°43' W 074°01'0 0.6
2018-Apr-11 17:01N 40°43' W 074°01'0 0.3
2018-Apr-11 16:31N 40°43' W 074°01'0 0.2
2018-Apr-11 16:01N 40°43' W 074°01'0 0.3
2018-Apr-11 15:30N 40°43' W 074°01'0 0.6
2018-Apr-11 15:00N 40°43' W 074°01'0 0.4
2018-Apr-11 14:30N 40°43' W 074°01'0 0.3
2018-Apr-11 14:00N 40°43' W 074°01'0 0.1
2018-Apr-11 13:30N 40°43' W 074°01'0 0.1
2018-Apr-11 13:00N 40°43' W 074°01'0 0.4
2018-Apr-11 12:30N 40°43' W 074°01'0 0.1
2018-Apr-11 12:00N 40°43' W 074°01'0 0.3
2018-Apr-11 11:31N 40°43' W 074°01'0 0.3
2018-Apr-11 11:00N 40°43' W 074°01'1 2.7
2018-Apr-11 10:30N 40°44' W 074°02'0 0.0
2018-Apr-11 01:11N 40°44' W 074°02'1 7.2
2018-Apr-11 01:01N 40°43' W 074°01'0 0.1
2018-Apr-11 00:30N 40°43' W 074°01'0 0.1
2018-Apr-11 00:00N 40°43' W 074°01'0 0.0
2018-Apr-10 23:30N 40°43' W 074°01'0 0.0
2018-Apr-10 23:00N 40°43' W 074°01'0 0.0
2018-Apr-10 22:30N 40°43' W 074°01'0 0.0
2018-Apr-10 22:00N 40°43' W 074°01'0 0.4
2018-Apr-10 21:30N 40°43' W 074°01'0 0.4
2018-Apr-10 21:00N 40°43' W 074°01'0 0.1
2018-Apr-10 20:30N 40°43' W 074°01'0 0.0
2018-Apr-10 20:00N 40°43' W 074°01'0 0.0
2018-Apr-10 19:30N 40°43' W 074°01'0 0.3
2018-Apr-10 19:01N 40°43' W 074°01'3 6.5
2018-Apr-10 18:30N 40°46' W 074°01'0 0.0
2018-Apr-10 18:00N 40°46' W 074°01'0 0.0
2018-Apr-10 17:30N 40°46' W 074°01'0 0.0
2018-Apr-10 17:00N 40°46' W 074°01'0 0.0
2018-Apr-10 16:30N 40°46' W 074°01'0 0.0
2018-Apr-10 16:00N 40°46' W 074°01'0 0.0
2018-Apr-10 15:30N 40°46' W 074°01'0 0.0
2018-Apr-10 14:59N 40°46' W 074°01'0 0.0
2018-Apr-10 14:30N 40°46' W 074°01'3 6.8
2018-Apr-10 14:00N 40°43' W 074°01'0 0.4
2018-Apr-10 13:31N 40°43' W 074°01'0 0.5
2018-Apr-10 13:00N 40°43' W 074°02'0 0.3
2018-Apr-10 12:30N 40°43' W 074°01'0 0.5
2018-Apr-10 12:00N 40°43' W 074°02'0 0.5
2018-Apr-10 11:30N 40°43' W 074°01'0 0.1
2018-Apr-10 11:00N 40°43' W 074°01'1 2.6
2018-Apr-10 10:30N 40°44' W 074°02'0 0.0
2018-Apr-10 01:12N 40°44' W 074°02'1 6.6
2018-Apr-10 01:00N 40°43' W 074°01'0 0.0
2018-Apr-10 00:30N 40°43' W 074°01'0 0.0
2018-Apr-10 00:00N 40°43' W 074°01'0 0.1
2018-Apr-09 23:30N 40°43' W 074°01'0 0.1
2018-Apr-09 23:00N 40°43' W 074°01'0 0.0
2018-Apr-09 22:30N 40°43' W 074°01'0 0.0
2018-Apr-09 22:00N 40°43' W 074°01'0 0.0
2018-Apr-09 21:30N 40°43' W 074°01'0 0.4
2018-Apr-09 21:00N 40°43' W 074°01'0 0.3
2018-Apr-09 20:30N 40°43' W 074°01'0 0.2
2018-Apr-09 20:00N 40°43' W 074°01'0 0.0
2018-Apr-09 19:30N 40°43' W 074°01'0 0.0
2018-Apr-09 19:00N 40°43' W 074°01'0 0.1
2018-Apr-09 18:30N 40°43' W 074°01'0 0.1
2018-Apr-09 18:00N 40°43' W 074°01'0 0.2
2018-Apr-09 17:31N 40°43' W 074°01'0 0.2
2018-Apr-09 17:00N 40°43' W 074°01'0 0.1
2018-Apr-09 16:31N 40°43' W 074°01'0 0.3
2018-Apr-09 16:00N 40°43' W 074°01'0 0.1
2018-Apr-09 15:31N 40°43' W 074°01'0 0.1
2018-Apr-09 15:01N 40°43' W 074°01'0 0.5
2018-Apr-09 14:30N 40°43' W 074°01'0 0.0
2018-Apr-09 14:00N 40°43' W 074°01'0 0.3
2018-Apr-09 13:31N 40°43' W 074°01'1 1.2
2018-Apr-09 13:01N 40°43' W 074°02'1 1.2
2018-Apr-09 12:30N 40°43' W 074°01'0 0.3
2018-Apr-09 12:00N 40°43' W 074°01'0 0.3
2018-Apr-09 11:31N 40°43' W 074°01'0 0.4
2018-Apr-09 11:00N 40°43' W 074°01'1 2.7
2018-Apr-09 10:30N 40°44' W 074°02'0 0.0
2018-Apr-09 07:34N 40°44' W 074°02'0 0.0
2018-Apr-09 07:26N 40°44' W 074°02'0 0.0
2018-Apr-09 06:53N 40°44' W 074°02'0 0.0
2018-Apr-09 06:30N 40°44' W 074°02'0 0.0
2018-Apr-09 06:00N 40°44' W 074°02'0 0.0
2018-Apr-09 05:30N 40°44' W 074°02'0 0.0
2018-Apr-09 05:00N 40°44' W 074°02'0 0.0
2018-Apr-09 04:30N 40°44' W 074°02'0 0.0
2018-Apr-09 04:00N 40°44' W 074°02'  
Track history (hours):
 
Tides and Currents Weather Stations Pressure Air Temp Water Temp Dewpoint Dewpoint Depression Visibility Wind Speed Wind Dir Waves Ship Positions

Hoboken

Owner: Port Imperial Ferry Corp., Weehawken, NJ. More information available from US FCC via Universal Licensing System and Coast Guard Vessel Documentation Center.

Last reported at 2018-Apr-18 13:59 UTC. Time now 2018-Apr-27 05:06 UTC.
Position N 40°46' W 074°01'.
Warning: this ship's position is 8 days out of date.

Length 26 m; draft 2 m.

Type: Passenger vessel. MMSI: 366868360.

Date/timePositionNaut miles runAvg speedWind from/ knotsBaromVisibWave heightAir tempDewpointWater temp
2018-Apr-18 13:59N 40°46' W 074°01'0 0.1
2018-Apr-18 13:30N 40°46' W 074°01'0 0.0
2018-Apr-18 13:00N 40°46' W 074°01'1 2.1
2018-Apr-18 12:30N 40°45' W 074°01'5 9.7
2018-Apr-18 12:00N 40°50' W 073°58'  
2018-Apr-15 21:11N 40°46' W 074°01'0 0.3
2018-Apr-15 21:00N 40°46' W 074°01'0 0.0
2018-Apr-15 20:29N 40°46' W 074°01'0 0.0
2018-Apr-15 20:00N 40°46' W 074°01'0 0.0
2018-Apr-15 19:30N 40°46' W 074°01'0 0.0
2018-Apr-15 19:00N 40°46' W 074°01'0 0.0
2018-Apr-15 18:30N 40°46' W 074°01'0 0.0
2018-Apr-15 18:00N 40°46' W 074°01'0 0.0
2018-Apr-15 17:29N 40°46' W 074°01'0 0.0
2018-Apr-15 17:00N 40°46' W 074°01'0 0.0
2018-Apr-15 16:30N 40°46' W 074°01'0 0.0
2018-Apr-15 15:59N 40°46' W 074°01'0 0.0
2018-Apr-15 15:30N 40°46' W 074°01'0 0.0
2018-Apr-15 14:59N 40°46' W 074°01'0 0.0
2018-Apr-13 13:39N 40°46' W 074°01'0 2.2
2018-Apr-13 13:30N 40°47' W 074°01'2 3.4
2018-Apr-13 13:01N 40°45' W 074°01'2 4.3
2018-Apr-13 12:30N 40°43' W 074°01'0 0.0
2018-Apr-13 12:00N 40°43' W 074°01'0 0.4
2018-Apr-13 11:31N 40°43' W 074°01'0 0.2
2018-Apr-13 11:00N 40°43' W 074°01'1 2.6
2018-Apr-13 10:31N 40°44' W 074°02'0 0.0
2018-Apr-13 01:13N 40°44' W 074°02'1 5.6
2018-Apr-13 01:01N 40°43' W 074°01'0 0.0
2018-Apr-13 00:30N 40°43' W 074°01'0 0.0
2018-Apr-13 00:00N 40°43' W 074°01'0 0.0
2018-Apr-12 23:30N 40°43' W 074°01'0 0.0
2018-Apr-12 23:00N 40°43' W 074°01'0 0.1
2018-Apr-12 22:30N 40°43' W 074°01'0 0.1
2018-Apr-12 22:00N 40°43' W 074°01'0 0.0
2018-Apr-12 21:30N 40°43' W 074°01'0 0.0
2018-Apr-12 21:00N 40°43' W 074°01'0 0.0
2018-Apr-12 20:30N 40°43' W 074°01'0 0.0
2018-Apr-12 20:01N 40°43' W 074°01'0 0.0
2018-Apr-12 19:30N 40°43' W 074°01'0 0.3
2018-Apr-12 19:00N 40°43' W 074°01'0 0.3
2018-Apr-12 18:30N 40°43' W 074°01'0 0.0
2018-Apr-12 18:00N 40°43' W 074°01'0 0.1
2018-Apr-12 17:30N 40°43' W 074°01'0 0.1
2018-Apr-12 17:00N 40°43' W 074°01'0 0.2
2018-Apr-12 16:30N 40°43' W 074°01'0 0.2
2018-Apr-12 16:00N 40°43' W 074°01'0 0.3
2018-Apr-12 15:30N 40°43' W 074°01'0 0.4
2018-Apr-12 15:00N 40°43' W 074°01'0 0.2
2018-Apr-12 14:30N 40°43' W 074°01'0 0.1
2018-Apr-12 14:00N 40°43' W 074°01'0 0.4
2018-Apr-12 13:30N 40°43' W 074°01'0 0.1
2018-Apr-12 13:00N 40°43' W 074°01'0 0.5
2018-Apr-12 12:30N 40°43' W 074°01'0 0.2
2018-Apr-12 12:00N 40°43' W 074°01'0 0.6
2018-Apr-12 11:30N 40°43' W 074°02'0 0.4
2018-Apr-12 11:00N 40°43' W 074°01'1 2.7
2018-Apr-12 10:30N 40°44' W 074°02'0 0.0
2018-Apr-12 01:12N 40°44' W 074°02'1 6.7
2018-Apr-12 01:00N 40°43' W 074°01'0 0.0
2018-Apr-12 00:31N 40°43' W 074°01'0 0.0
2018-Apr-12 00:00N 40°43' W 074°01'0 0.0
2018-Apr-11 23:30N 40°43' W 074°01'0 0.1
2018-Apr-11 23:00N 40°43' W 074°01'0 0.0
2018-Apr-11 22:30N 40°43' W 074°01'0 0.0
2018-Apr-11 22:00N 40°43' W 074°01'0 0.0
2018-Apr-11 21:30N 40°43' W 074°01'0 0.0
2018-Apr-11 21:00N 40°43' W 074°01'0 0.1
2018-Apr-11 20:30N 40°43' W 074°01'0 0.1
2018-Apr-11 20:01N 40°43' W 074°01'0 0.0
2018-Apr-11 19:30N 40°43' W 074°01'0 0.2
2018-Apr-11 19:00N 40°43' W 074°01'0 0.2
2018-Apr-11 18:31N 40°43' W 074°01'0 0.1
2018-Apr-11 18:01N 40°43' W 074°01'0 0.1
2018-Apr-11 17:31N 40°43' W 074°01'0 0.6
2018-Apr-11 17:01N 40°43' W 074°01'0 0.3
2018-Apr-11 16:31N 40°43' W 074°01'0 0.2
2018-Apr-11 16:01N 40°43' W 074°01'0 0.3
2018-Apr-11 15:30N 40°43' W 074°01'0 0.6
2018-Apr-11 15:00N 40°43' W 074°01'0 0.4
2018-Apr-11 14:30N 40°43' W 074°01'0 0.3
2018-Apr-11 14:00N 40°43' W 074°01'0 0.1
2018-Apr-11 13:30N 40°43' W 074°01'0 0.1
2018-Apr-11 13:00N 40°43' W 074°01'0 0.4
2018-Apr-11 12:30N 40°43' W 074°01'0 0.1
2018-Apr-11 12:00N 40°43' W 074°01'0 0.3
2018-Apr-11 11:31N 40°43' W 074°01'0 0.3
2018-Apr-11 11:00N 40°43' W 074°01'1 2.7
2018-Apr-11 10:30N 40°44' W 074°02'0 0.0
2018-Apr-11 01:11N 40°44' W 074°02'1 7.2
2018-Apr-11 01:01N 40°43' W 074°01'0 0.1
2018-Apr-11 00:30N 40°43' W 074°01'0 0.1
2018-Apr-11 00:00N 40°43' W 074°01'0 0.0
2018-Apr-10 23:30N 40°43' W 074°01'0 0.0
2018-Apr-10 23:00N 40°43' W 074°01'0 0.0
2018-Apr-10 22:30N 40°43' W 074°01'0 0.0
2018-Apr-10 22:00N 40°43' W 074°01'0 0.4
2018-Apr-10 21:30N 40°43' W 074°01'0 0.4
2018-Apr-10 21:00N 40°43' W 074°01'0 0.1
2018-Apr-10 20:30N 40°43' W 074°01'0 0.0
2018-Apr-10 20:00N 40°43' W 074°01'0 0.0
2018-Apr-10 19:30N 40°43' W 074°01'0 0.3
2018-Apr-10 19:01N 40°43' W 074°01'3 6.5
2018-Apr-10 18:30N 40°46' W 074°01'0 0.0
2018-Apr-10 18:00N 40°46' W 074°01'0 0.0
2018-Apr-10 17:30N 40°46' W 074°01'0 0.0
2018-Apr-10 17:00N 40°46' W 074°01'0 0.0
2018-Apr-10 16:30N 40°46' W 074°01'0 0.0
2018-Apr-10 16:00N 40°46' W 074°01'0 0.0
2018-Apr-10 15:30N 40°46' W 074°01'0 0.0
2018-Apr-10 14:59N 40°46' W 074°01'0 0.0
2018-Apr-10 14:30N 40°46' W 074°01'3 6.8
2018-Apr-10 14:00N 40°43' W 074°01'0 0.4
2018-Apr-10 13:31N 40°43' W 074°01'0 0.5
2018-Apr-10 13:00N 40°43' W 074°02'0 0.3
2018-Apr-10 12:30N 40°43' W 074°01'0 0.5
2018-Apr-10 12:00N 40°43' W 074°02'0 0.5
2018-Apr-10 11:30N 40°43' W 074°01'0 0.1
2018-Apr-10 11:00N 40°43' W 074°01'1 2.6
2018-Apr-10 10:30N 40°44' W 074°02'0 0.0
2018-Apr-10 01:12N 40°44' W 074°02'1 6.6
2018-Apr-10 01:00N 40°43' W 074°01'0 0.0
2018-Apr-10 00:30N 40°43' W 074°01'0 0.0
2018-Apr-10 00:00N 40°43' W 074°01'0 0.1
2018-Apr-09 23:30N 40°43' W 074°01'0 0.1
2018-Apr-09 23:00N 40°43' W 074°01'0 0.0
2018-Apr-09 22:30N 40°43' W 074°01'0 0.0
2018-Apr-09 22:00N 40°43' W 074°01'0 0.0
2018-Apr-09 21:30N 40°43' W 074°01'0 0.4
2018-Apr-09 21:00N 40°43' W 074°01'0 0.3
2018-Apr-09 20:30N 40°43' W 074°01'0 0.2
2018-Apr-09 20:00N 40°43' W 074°01'0 0.0
2018-Apr-09 19:30N 40°43' W 074°01'0 0.0
2018-Apr-09 19:00N 40°43' W 074°01'0 0.1
2018-Apr-09 18:30N 40°43' W 074°01'0 0.1
2018-Apr-09 18:00N 40°43' W 074°01'0 0.2
2018-Apr-09 17:31N 40°43' W 074°01'0 0.2
2018-Apr-09 17:00N 40°43' W 074°01'0 0.1
2018-Apr-09 16:31N 40°43' W 074°01'0 0.3
2018-Apr-09 16:00N 40°43' W 074°01'0 0.1
2018-Apr-09 15:31N 40°43' W 074°01'0 0.1
2018-Apr-09 15:01N 40°43' W 074°01'0 0.5
2018-Apr-09 14:30N 40°43' W 074°01'0 0.0
2018-Apr-09 14:00N 40°43' W 074°01'0 0.3
2018-Apr-09 13:31N 40°43' W 074°01'1 1.2
2018-Apr-09 13:01N 40°43' W 074°02'1 1.2
2018-Apr-09 12:30N 40°43' W 074°01'0 0.3
2018-Apr-09 12:00N 40°43' W 074°01'0 0.3
2018-Apr-09 11:31N 40°43' W 074°01'0 0.4
2018-Apr-09 11:00N 40°43' W 074°01'1 2.7
2018-Apr-09 10:30N 40°44' W 074°02'0 0.0
2018-Apr-09 07:34N 40°44' W 074°02'0 0.0
2018-Apr-09 07:26N 40°44' W 074°02'0 0.0
2018-Apr-09 06:53N 40°44' W 074°02'0 0.0
2018-Apr-09 06:30N 40°44' W 074°02'0 0.0
2018-Apr-09 06:00N 40°44' W 074°02'0 0.0
2018-Apr-09 05:30N 40°44' W 074°02'0 0.0
2018-Apr-09 05:00N 40°44' W 074°02'0 0.0
2018-Apr-09 04:30N 40°44' W 074°02'0 0.0
2018-Apr-09 04:00N 40°44' W 074°02'  

Dump ship's entire track history